Time;durP1;ratioP1;P1;durP2;ratioP2;P2;SDS_P1;SDS_P2;PMS_P1;PMS_P2;Temp;Humidity;BMP_temperature;BMP_pressure;BME280_temperature;BME280_humidity;BME280_pressure;Samples;Min_cycle;Max_cycle;Signal;HPM_P1;HPM_P2
2022/03/31 00:00:40;;;;;;;4.93;1.13;;;;;;;;;;5092666;28;20047;-53
2022/03/31 00:03:09;;;;;;;6.57;0.77;;;3.70;99.90;;;;;;5092798;28;20036;-51
2022/03/31 00:05:36;;;;;;;2.47;0.80;;;;;;;;;;5092234;28;20363;-53
2022/03/31 00:08:08;;;;;;;8.32;1.23;;;3.60;99.90;;;;;;5093772;28;20096;-52
2022/03/31 00:10:37;;;;;;;;;;;3.80;99.90;;;;;;5093978;28;20039;-50
2022/03/31 00:13:06;;;;;;;5.28;1.00;;;3.60;99.90;;;;;;5093926;28;19955;-50
2022/03/31 00:15:32;;;;;;;5.03;0.80;;;3.70;99.90;;;;;;5093255;28;20032;-54
2022/03/31 00:17:59;;;;;;;9.65;0.82;;;3.70;99.90;;;;;;5093170;28;20246;-52
2022/03/31 00:20:26;;;;;;;6.07;1.25;;;;;;;;;;5075168;28;20052;-51
2022/03/31 00:22:52;;;;;;;3.72;0.80;;;;;;;;;;5093567;28;20124;-52
2022/03/31 00:25:19;;;;;;;1.65;0.60;;;3.50;99.90;;;;;;5093936;28;20044;-54
2022/03/31 00:27:45;;;;;;;6.38;1.38;;;;;;;;;;5093391;28;20798;-48
2022/03/31 00:30:13;;;;;;;4.97;1.10;;;3.30;99.90;;;;;;5092138;28;20040;-53
2022/03/31 00:32:39;;;;;;;7.18;1.10;;;;;;;;;;5091049;28;20195;-53
2022/03/31 00:35:06;;;;;;;3.13;1.00;;;3.40;99.90;;;;;;5091428;28;20580;-52
2022/03/31 00:37:32;;;;;;;5.95;1.13;;;;;;;;;;5073441;28;20101;-53
2022/03/31 00:40:01;;;;;;;5.18;1.15;;;;;;;;;;5091119;28;20051;-52
2022/03/31 00:42:27;;;;;;;10.85;1.23;;;;;;;;;;5091662;28;20075;-50
2022/03/31 00:44:53;;;;;;;12.55;2.17;;;;;;;;;;5092127;28;20063;-53
2022/03/31 00:47:19;;;;;;;6.75;1.40;;;;;;;;;;5091483;28;20476;-52
2022/03/31 00:49:46;;;;;;;6.47;1.20;;;;;;;;;;5090988;28;20072;-50
2022/03/31 00:52:12;;;;;;;6.53;1.13;;;;;;;;;;5091007;28;20074;-51
2022/03/31 00:54:39;;;;;;;10.57;1.40;;;3.10;99.90;;;;;;5092553;28;20557;-53
2022/03/31 00:57:07;;;;;;;4.43;1.52;;;3.20;99.90;;;;;;5092321;28;20032;-48
2022/03/31 00:59:36;;;;;;;6.40;1.33;;;3.20;99.90;;;;;;5090888;28;20062;-51
2022/03/31 01:02:03;;;;;;;11.15;1.80;;;3.10;99.90;;;;;;5091055;28;20050;-54
2022/03/31 01:04:29;;;;;;;3.75;1.02;;;;;;;;;;5091682;28;20591;-51
2022/03/31 01:06:57;;;;;;;8.63;2.05;;;2.80;99.90;;;;;;5090943;28;20123;-53
2022/03/31 01:09:23;;;;;;;8.57;2.67;;;;;;;;;;5091194;28;20523;-50
2022/03/31 01:11:49;;;;;;;5.55;1.17;;;;;;;;;;5090943;28;20201;-51
2022/03/31 01:14:16;;;;;;;5.50;1.20;;;;;;;;;;5091301;28;20044;-51
2022/03/31 01:16:42;;;;;;;7.13;1.17;;;;;;;;;;5092551;28;21298;-54
2022/03/31 01:19:09;;;;;;;6.20;1.33;;;2.80;99.90;;;;;;5093400;28;20051;-47
2022/03/31 01:21:41;;;;;;;9.60;2.63;;;2.80;99.90;;;;;;5092399;28;20040;-51
2022/03/31 01:24:09;;;;;;;6.43;1.20;;;2.80;99.90;;;;;;5092623;28;20039;-46
2022/03/31 01:26:35;;;;;;;6.53;1.20;;;;;;;;;;5093203;28;20039;-51
2022/03/31 01:29:03;;;;;;;8.40;1.00;;;2.80;99.90;;;;;;5093387;28;20676;-45
2022/03/31 01:31:30;;;;;;;8.98;1.35;;;;;;;;;;5092350;28;20518;-46
2022/03/31 01:33:57;;;;;;;7.05;1.50;;;;;;;;;;5093234;28;20055;-50
2022/03/31 01:36:23;;;;;;;7.35;1.35;;;;;;;;;;5093045;28;20673;-51
2022/03/31 01:38:50;;;;;;;3.30;1.00;;;2.70;99.90;;;;;;5092413;28;20047;-49
2022/03/31 01:41:16;;;;;;;4.32;1.20;;;;;;;;;;5092295;28;20513;-46
2022/03/31 01:43:42;;;;;;;6.45;1.10;;;;;;;;;;5091495;28;20385;-46
2022/03/31 01:46:09;;;;;;;4.45;0.90;;;;;;;;;;5091791;28;20503;-51
2022/03/31 01:48:35;;;;;;;4.45;1.10;;;;;;;;;;5091245;28;20040;-48
2022/03/31 01:51:04;;;;;;;7.38;1.65;;;;;;;;;;5090340;28;20043;-49
2022/03/31 01:53:33;;;;;;;3.35;1.00;;;2.80;99.90;;;;;;5071819;28;20499;-50
2022/03/31 01:55:59;;;;;;;5.05;1.20;;;;;;;;;;5073361;28;20518;-52
2022/03/31 01:58:25;;;;;;;5.68;1.17;;;;;;;;;;5094671;28;20073;-51
2022/03/31 02:00:51;;;;;;;5.03;1.27;;;;;;;;;;5094366;28;20062;-50
2022/03/31 02:03:18;;;;;;;4.35;1.27;;;2.90;99.90;;;;;;5094838;28;20043;-49
2022/03/31 02:05:44;;;;;;;5.13;1.02;;;;;;;;;;5077701;28;20047;-51
2022/03/31 02:08:13;;;;;;;6.13;1.35;;;2.90;99.90;;;;;;5095388;28;20115;-50
2022/03/31 02:10:39;;;;;;;5.82;1.30;;;;;;;;;;5095109;28;20546;-52
2022/03/31 02:13:08;;;;;;;7.20;1.30;;;;;;;;;;5095763;28;20040;-50
2022/03/31 02:15:34;;;;;;;5.03;1.15;;;;;;;;;;5094989;28;20051;-46
2022/03/31 02:18:02;;;;;;;5.03;1.10;;;;;;;;;;5094392;28;20051;-45
2022/03/31 02:20:30;;;;;;;3.83;1.30;;;2.70;99.90;;;;;;5095999;28;20055;-48
2022/03/31 02:22:59;;;;;;;6.13;1.40;;;3.00;99.90;;;;;;5095632;28;20044;-52
2022/03/31 02:25:25;;;;;;;5.68;1.55;;;;;;;;;;5095082;28;20050;-52
2022/03/31 02:27:55;;;;;;;4.28;2.35;;;2.80;99.90;;;;;;5094423;28;20031;-51
2022/03/31 02:30:23;;;;;;;5.57;2.45;;;2.80;99.90;;;;;;5094722;28;20040;-48
2022/03/31 02:32:49;;;;;;;6.40;2.20;;;;;;;;;;5094283;28;20043;-51
2022/03/31 02:35:17;;;;;;;7.13;2.30;;;;;;;;;;5096320;28;20036;-47
2022/03/31 02:37:44;;;;;;;6.25;2.85;;;3.00;99.90;;;;;;5095519;28;20101;-47
2022/03/31 02:40:10;;;;;;;5.68;3.15;;;;;;;;;;5095842;28;20044;-45
2022/03/31 02:42:36;;;;;;;11.55;2.78;;;;;;;;;;5094350;28;20044;-54
2022/03/31 02:45:04;;;;;;;6.07;3.40;;;3.20;99.90;;;;;;5077799;28;20528;-49
2022/03/31 02:47:30;;;;;;;10.93;4.07;;;;;;;;;;5096149;28;20497;-48
2022/03/31 02:49:58;;;;;;;8.68;4.50;;;3.00;99.90;;;;;;5096210;28;20075;-47
2022/03/31 02:52:24;;;;;;;9.88;4.70;;;;;;;;;;5096010;28;20824;-44
2022/03/31 02:57:35;;;;;;;8.15;5.10;;;;;;;;;;5094523;28;20071;-44
2022/03/31 03:00:01;;;;;;;9.60;5.28;;;;;;;;;;5095013;28;20050;-44
2022/03/31 03:02:27;;;;;;;8.30;5.07;;;;;;;;;;5095689;28;20048;-46
2022/03/31 03:04:54;;;;;;;8.00;5.13;;;;;;;;;;5094188;28;20291;-43
2022/03/31 03:07:22;;;;;;;9.43;5.82;;;2.80;99.90;;;;;;5094298;28;20096;-43
2022/03/31 03:09:48;;;;;;;7.00;4.45;;;;;;;;;;5093148;28;20777;-42
2022/03/31 03:12:14;;;;;;;9.60;6.75;;;;;;;;;;5094343;28;20075;-42
2022/03/31 03:14:42;;;;;;;10.55;6.78;;;2.60;99.90;;;;;;5094600;28;20039;-43
2022/03/31 03:17:08;;;;;;;13.68;8.48;;;;;;;;;;5094087;28;20777;-43
2022/03/31 03:19:34;;;;;;;10.93;7.13;;;;;;;;;;5093521;28;20083;-45
2022/03/31 03:22:04;;;;;;;15.23;7.82;;;2.70;99.90;;;;;;5095408;28;20050;-47
2022/03/31 03:24:30;;;;;;;12.90;8.98;;;;;;;;;;5094621;28;20043;-44
2022/03/31 03:26:56;;;;;;;11.68;7.40;;;;;;;;;;5093148;28;20173;-47
2022/03/31 03:29:22;;;;;;;8.35;5.70;;;2.60;99.90;;;;;;5094283;28;20047;-43
2022/03/31 03:31:48;;;;;;;8.40;5.85;;;;;;;;;;5092246;28;20091;-46
2022/03/31 03:34:15;;;;;;;7.80;5.13;;;;;;;;;;5093600;28;20134;-44
2022/03/31 03:36:41;;;;;;;9.73;6.03;;;;;;;;;;5074919;28;20092;-47
2022/03/31 03:39:07;;;;;;;6.90;3.47;;;;;;;;;;5093402;28;20082;-43
2022/03/31 03:41:33;;;;;;;6.32;3.97;;;;;;;;;;5094416;28;20039;-45
2022/03/31 03:43:59;;;;;;;6.97;3.75;;;;;;;;;;5093555;28;20036;-44
2022/03/31 03:46:25;;;;;;;4.25;2.65;;;;;;;;;;5092999;28;20039;-45
2022/03/31 03:48:51;;;;;;;5.43;3.45;;;;;;;;;;5091977;28;20036;-44
2022/03/31 03:51:19;;;;;;;6.32;3.67;;;2.30;99.90;;;;;;5093449;28;20122;-44
2022/03/31 03:53:45;;;;;;;6.60;4.20;;;;;;;;;;5094186;28;20047;-44
2022/03/31 03:56:11;;;;;;;5.97;2.67;;;;;;;;;;5093741;28;20732;-46
2022/03/31 03:58:39;;;;;;;4.30;2.70;;;2.30;99.90;;;;;;5094732;28;20045;-46
2022/03/31 04:01:05;;;;;;;4.60;2.15;;;;;;;;;;5093896;28;20092;-45
2022/03/31 04:03:31;;;;;;;5.30;2.55;;;;;;;;;;5095489;28;20092;-45
2022/03/31 04:05:57;;;;;;;6.00;2.60;;;;;;;;;;5095948;28;20047;-46
2022/03/31 04:08:23;;;;;;;3.60;2.15;;;;;;;;;;5094809;28;20491;-47
2022/03/31 04:10:49;;;;;;;4.47;2.30;;;;;;;;;;5094424;28;20488;-43
2022/03/31 04:13:18;;;;;;;3.20;1.83;;;;;;;;;;5095579;28;20407;-43
2022/03/31 04:15:44;;;;;;;7.05;2.60;;;;;;;;;;5093006;28;20404;-46
2022/03/31 04:18:10;;;;;;;7.15;3.25;;;;;;;;;;5093488;28;20521;-45
2022/03/31 04:20:36;;;;;;;6.00;3.83;;;;;;;;;;5091785;28;20536;-46
2022/03/31 04:23:02;;;;;;;6.32;4.45;;;;;;;;;;5093025;28;20057;-47
2022/03/31 04:25:28;;;;;;;7.80;4.25;;;;;;;;;;5093424;28;20043;-46
2022/03/31 04:27:56;;;;;;;5.93;4.00;;;2.30;99.90;;;;;;5093095;28;20035;-44
2022/03/31 04:30:22;;;;;;;6.63;4.85;;;;;;;;;;5093077;28;20144;-44
2022/03/31 04:32:49;;;;;;;11.05;6.55;;;;;;;;;;5092101;28;20044;-43
2022/03/31 04:35:17;;;;;;;7.78;5.50;;;2.20;99.90;;;;;;5093005;28;20206;-44
2022/03/31 04:37:43;;;;;;;8.88;5.93;;;;;;;;;;5092504;28;20101;-46
2022/03/31 04:40:10;;;;;;;9.30;6.25;;;;;;;;;;5092486;28;20054;-44
2022/03/31 04:42:36;;;;;;;9.07;6.10;;;;;;;;;;5091732;28;20040;-44
2022/03/31 04:45:04;;;;;;;8.00;5.22;;;;;;;;;;5093645;28;20078;-45
2022/03/31 04:47:31;;;;;;;9.38;7.10;;;;;;;;;;5093008;28;20039;-45
2022/03/31 04:49:57;;;;;;;8.35;5.57;;;;;;;;;;5091603;28;20032;-45
2022/03/31 04:52:23;;;;;;;8.45;5.07;;;;;;;;;;5091659;28;20028;-49
2022/03/31 04:54:49;;;;;;;8.63;4.60;;;;;;;;;;5091563;28;21254;-46
2022/03/31 04:57:16;;;;;;;9.38;4.20;;;1.60;99.90;;;;;;5092788;28;20055;-46
2022/03/31 04:59:44;;;;;;;6.38;3.78;;;;;;;;;;5092264;28;20042;-45
2022/03/31 05:02:11;;;;;;;5.85;3.10;;;;;;;;;;5091351;28;20044;-45
2022/03/31 05:04:37;;;;;;;6.30;2.97;;;;;;;;;;5092206;28;20544;-44
2022/03/31 05:07:05;;;;;;;6.47;3.15;;;;;;;;;;5073255;28;20404;-47
2022/03/31 05:09:31;;;;;;;5.70;2.42;;;;;;;;;;5094306;28;20051;-46
2022/03/31 05:11:57;;;;;;;3.75;1.88;;;;;;;;;;5092900;28;20035;-45
2022/03/31 05:14:24;;;;;;;5.40;2.65;;;;;;;;;;5093282;28;20100;-46
2022/03/31 05:16:50;;;;;;;6.82;2.97;;;;;;;;;;5093410;28;20040;-44
2022/03/31 05:19:17;;;;;;;4.30;2.45;;;;;;;;;;5093298;28;20171;-46
2022/03/31 05:21:43;;;;;;;4.93;1.95;;;;;;;;;;5091952;28;20078;-45
2022/03/31 05:24:09;;;;;;;6.18;4.00;;;;;;;;;;5090766;28;20052;-44
2022/03/31 05:26:36;;;;;;;5.25;2.88;;;;;;;;;;5091391;28;20096;-47
2022/03/31 05:29:02;;;;;;;5.25;3.28;;;;;;;;;;5092133;28;20884;-47
2022/03/31 05:31:28;;;;;;;6.55;4.15;;;;;;;;;;5091142;28;20542;-48
2022/03/31 05:33:54;;;;;;;6.30;3.55;;;;;;;;;;5090442;28;20322;-49
2022/03/31 05:36:22;;;;;;;7.43;3.88;;;;;;;;;;5092511;28;20202;-46
2022/03/31 05:38:48;;;;;;;9.70;4.50;;;;;;;;;;5091329;28;20039;-50
2022/03/31 05:41:14;;;;;;;6.93;3.50;;;;;;;;;;5072140;28;20039;-45
2022/03/31 05:43:40;;;;;;;10.90;5.38;;;;;;;;;;5089405;28;20621;-47
2022/03/31 05:46:08;;;;;;;10.80;5.82;;;;;;;;;;5090651;28;20062;-48
2022/03/31 05:48:34;;;;;;;8.30;4.05;;;;;;;;;;5092195;28;20065;-45
2022/03/31 05:51:00;;;;;;;7.55;4.65;;;;;;;;;;5090702;28;20062;-49
2022/03/31 05:53:26;;;;;;;8.38;5.28;;;;;;;;;;5090559;28;21028;-47
2022/03/31 05:55:52;;;;;;;7.78;4.53;;;;;;;;;;5091841;28;20043;-47
2022/03/31 05:58:18;;;;;;;6.85;4.53;;;;;;;;;;5090821;28;20039;-46
2022/03/31 06:00:46;;;;;;;5.95;4.40;;;2.20;99.90;;;;;;5090371;28;20308;-50
2022/03/31 06:03:12;;;;;;;7.32;4.72;;;;;;;;;;5090951;28;20046;-44
2022/03/31 06:05:38;;;;;;;8.27;4.90;;;;;;;;;;5091597;28;20031;-44
2022/03/31 06:08:05;;;;;;;5.75;4.32;;;;;;;;;;5091030;28;20109;-46
2022/03/31 06:10:31;;;;;;;8.32;4.90;;;;;;;;;;5090665;28;20117;-44
2022/03/31 06:12:57;;;;;;;8.30;5.50;;;;;;;;;;5091123;28;20422;-44
2022/03/31 06:15:23;;;;;;;8.63;6.55;;;;;;;;;;5091915;28;20074;-43
2022/03/31 06:17:49;;;;;;;6.95;4.63;;;;;;;;;;5090090;28;20773;-47
2022/03/31 06:20:16;;;;;;;6.70;4.95;;;;;;;;;;5090213;28;20393;-46
2022/03/31 06:22:42;;;;;;;5.07;3.80;;;;;;;;;;5091894;28;20055;-49
2022/03/31 06:25:10;;;;;;;12.68;9.27;;;;;;;;;;5091508;28;20188;-45
2022/03/31 06:27:36;;;;;;;6.28;4.32;;;;;;;;;;5092417;28;20044;-46
2022/03/31 06:30:02;;;;;;;6.65;5.07;;;;;;;;;;5092154;28;20051;-44
2022/03/31 06:32:29;;;;;;;7.15;5.65;;;;;;;;;;5092789;28;20035;-46
2022/03/31 06:34:55;;;;;;;6.55;3.88;;;;;;;;;;5091657;28;20187;-46
2022/03/31 06:37:21;;;;;;;6.93;5.78;;;;;;;;;;5071608;28;20047;-45
2022/03/31 06:39:47;;;;;;;7.55;6.65;;;;;;;;;;5093186;28;20077;-44
2022/03/31 06:42:14;;;;;;;6.40;4.93;;;;;;;;;;5090581;28;20054;-45
2022/03/31 06:44:41;;;;;;;6.15;4.38;;;;;;;;;;5092935;28;20070;-45
2022/03/31 06:47:08;;;;;;;8.55;6.78;;;2.60;99.90;;;;;;5094132;28;20057;-48
2022/03/31 06:49:35;;;;;;;10.75;6.90;;;;;;;;;;5094621;28;20089;-45
2022/03/31 06:52:01;;;;;;;12.73;8.82;;;;;;;;;;5093416;28;20499;-44
2022/03/31 06:54:27;;;;;;;11.68;7.85;;;;;;;;;;5094479;28;20051;-46
2022/03/31 06:56:55;;;;;;;9.52;5.93;;;;;;;;;;5092713;28;20050;-47
2022/03/31 06:59:21;;;;;;;7.00;4.90;;;;;;;;;;5094612;28;20044;-45
2022/03/31 07:01:49;;;;;;;7.68;3.75;;;2.70;99.90;;;;;;5094644;28;20053;-45
2022/03/31 07:04:17;;;;;;;6.97;5.45;;;2.70;99.90;;;;;;5094032;28;20043;-45
2022/03/31 07:06:43;;;;;;;7.00;4.75;;;;;;;;;;5093714;28;20108;-45
2022/03/31 07:09:09;;;;;;;7.75;6.53;;;;;;;;;;5075556;28;20142;-44
2022/03/31 07:11:35;;;;;;;10.23;6.85;;;;;;;;;;5094269;28;20510;-47
2022/03/31 07:14:01;;;;;;;7.15;5.80;;;;;;;;;;5094601;28;20031;-43
2022/03/31 07:16:30;;;;;;;6.90;5.18;;;;;;;;;;5093056;28;20036;-46
2022/03/31 07:18:57;;;;;;;8.90;7.07;;;;;;;;;;5058250;28;20130;-45
2022/03/31 07:21:23;;;;;;;8.07;6.50;;;;;;;;;;5093834;28;20587;-45
2022/03/31 07:23:50;;;;;;;7.00;5.47;;;;;;;;;;5093033;28;20027;-44
2022/03/31 07:26:16;;;;;;;7.60;6.63;;;;;;;;;;5092248;28;20047;-45
2022/03/31 07:28:43;;;;;;;7.65;4.95;;;;;;;;;;5092679;28;20054;-44
2022/03/31 07:31:09;;;;;;;6.60;4.82;;;;;;;;;;5094440;28;20051;-44
2022/03/31 07:33:35;;;;;;;5.85;4.10;;;;;;;;;;5094013;28;20040;-46
2022/03/31 07:36:01;;;;;;;8.07;6.32;;;;;;;;;;5094121;28;20527;-45
2022/03/31 07:38:27;;;;;;;8.10;6.10;;;;;;;;;;5094250;28;20039;-44
2022/03/31 07:40:54;;;;;;;8.38;7.35;;;;;;;;;;5094358;28;20039;-46
2022/03/31 07:43:20;;;;;;;8.43;6.55;;;;;;;;;;5094640;28;20035;-46
2022/03/31 07:45:47;;;;;;;9.30;8.10;;;2.80;99.90;;;;;;5092962;28;20040;-47
2022/03/31 07:48:15;;;;;;;8.57;4.75;;;;;;;;;;5093669;28;20036;-44
2022/03/31 07:50:42;;;;;;;7.13;4.85;;;;;;;;;;5093981;28;20044;-50
2022/03/31 07:53:09;;;;;;;8.75;7.43;;;;;;;;;;5093639;28;20042;-52
2022/03/31 07:55:35;;;;;;;8.30;6.63;;;;;;;;;;5090707;28;20493;-49
2022/03/31 07:58:01;;;;;;;8.90;7.22;;;;;;;;;;5091654;28;20177;-46
2022/03/31 08:00:27;;;;;;;8.52;6.57;;;;;;;;;;5092743;28;20404;-46
2022/03/31 08:02:53;;;;;;;4.40;2.97;;;;;;;;;;5092354;28;20039;-46
2022/03/31 08:05:21;;;;;;;7.90;6.25;;;;;;;;;;5092799;28;20477;-47
2022/03/31 08:07:47;;;;;;;6.78;4.80;;;;;;;;;;5092436;28;20057;-49
2022/03/31 08:10:13;;;;;;;6.75;5.32;;;;;;;;;;5092455;28;20079;-49
2022/03/31 08:12:40;;;;;;;4.47;2.78;;;;;;;;;;5074379;28;20040;-45
2022/03/31 08:15:09;;;;;;;9.32;7.90;;;2.80;99.90;;;;;;5091391;28;20096;-47
2022/03/31 08:17:35;;;;;;;7.10;5.45;;;;;;;;;;5089574;28;20126;-49
2022/03/31 08:20:01;;;;;;;8.88;7.50;;;;;;;;;;5090999;28;20066;-49
2022/03/31 08:22:27;;;;;;;5.75;4.20;;;;;;;;;;5091451;28;21267;-47
2022/03/31 08:24:54;;;;;;;7.63;5.07;;;;;;;;;;5073773;28;20372;-46
2022/03/31 08:27:21;;;;;;;5.80;4.38;;;;;;;;;;5093108;28;20043;-49
2022/03/31 08:29:47;;;;;;;8.30;7.05;;;;;;;;;;5092764;28;20043;-47
2022/03/31 08:32:15;;;;;;;6.68;5.15;;;;;;;;;;5093401;28;20047;-45
2022/03/31 08:34:41;;;;;;;9.45;6.25;;;;;;;;;;5092607;28;20036;-45
2022/03/31 08:37:09;;;;;;;5.65;3.63;;;;;;;;;;5093034;28;20042;-48
2022/03/31 08:39:35;;;;;;;8.27;6.30;;;;;;;;;;5093849;28;20043;-45
2022/03/31 08:42:02;;;;;;;7.72;4.82;;;;;;;;;;5091376;28;20126;-44
2022/03/31 08:44:30;;;;;;;7.35;5.00;;;;;;;;;;5092813;28;20036;-45
2022/03/31 08:46:56;;;;;;;10.23;8.57;;;;;;;;;;5091519;28;20044;-49
2022/03/31 08:49:22;;;;;;;9.73;7.88;;;;;;;;;;5093590;28;20100;-46
2022/03/31 08:51:48;;;;;;;9.63;7.60;;;;;;;;;;5074376;28;20046;-46
2022/03/31 08:54:15;;;;;;;8.70;6.38;;;;;;;;;;5093353;28;20053;-46
2022/03/31 08:56:41;;;;;;;8.50;6.07;;;;;;;;;;5073586;28;20056;-45
2022/03/31 08:59:07;;;;;;;7.13;5.38;;;;;;;;;;5094053;28;20590;-49
2022/03/31 09:01:33;;;;;;;9.23;6.93;;;;;;;;;;5093763;28;20055;-50
2022/03/31 09:04:00;;;;;;;10.35;7.00;;;;;;;;;;5092006;28;20043;-49
2022/03/31 09:06:28;;;;;;;9.60;7.15;;;;;;;;;;5071481;28;20069;-46
2022/03/31 09:09:04;;;;;;;7.30;3.90;;;;;;;;;;5091426;28;20044;-48
2022/03/31 09:11:32;;;;;;;11.43;8.40;;;;;;;;;;5091464;28;20075;-44
2022/03/31 09:14:00;;;;;;;12.27;8.77;;;;;;;;;;5090958;28;20734;-45
2022/03/31 09:16:37;;;;;;;12.98;8.70;;;;;;;;;;5092936;28;20050;-44
2022/03/31 09:19:04;;;;;;;8.90;5.18;;;;;;;;;;5091072;28;20051;-45
2022/03/31 09:21:31;;;;;;;10.55;7.40;;;;;;;;;;5091489;28;20077;-45
2022/03/31 09:23:57;;;;;;;7.05;4.05;;;;;;;;;;5092471;28;20035;-46
2022/03/31 09:26:27;;;;;;;11.07;7.47;;;;;;;;;;5091785;28;20811;-46
2022/03/31 09:28:54;;;;;;;14.05;7.65;;;;;;;;;;5072063;28;20047;-46
2022/03/31 09:31:24;;;;;;;13.63;8.98;;;;;;;;;;5073535;28;20828;-43
2022/03/31 09:33:55;;;;;;;24.50;6.68;;;;;;;;;;5090577;28;20061;-46
2022/03/31 09:36:22;;;;;;;9.18;6.10;;;;;;;;;;5091435;28;20047;-45
2022/03/31 09:39:17;;;;;;;10.27;7.13;;;;;;;;;;5090432;28;20871;-44
2022/03/31 09:41:47;;;;;;;11.75;8.48;;;;;;;;;;5008193;28;20049;-50
2022/03/31 09:44:13;;;;;;;10.13;7.38;;;;;;;;;;5008883;28;20041;-44
2022/03/31 09:46:40;;;;;;;8.35;6.03;;;;;;;;;;5007894;28;20055;-44
2022/03/31 09:49:09;;;;;;;7.68;4.70;;;;;;;;;;5009582;28;20052;-45
2022/03/31 09:51:36;;;;;;;6.60;4.32;;;;;;;;;;5006794;28;20077;-44
2022/03/31 09:54:02;;;;;;;7.32;4.95;;;;;;;;;;5008347;28;20142;-44
2022/03/31 09:56:28;;;;;;;8.30;6.00;;;;;;;;;;5009373;28;20719;-46
2022/03/31 09:59:00;;;;;;;9.95;6.68;;;;;;;;;;5010063;28;20046;-43
2022/03/31 10:01:26;;;;;;;7.80;6.10;;;;;;;;;;5010047;28;20037;-47
2022/03/31 10:03:56;;;;;;;7.50;4.65;;;;;;;;;;5011680;28;20042;-46
2022/03/31 10:06:24;;;;;;;6.75;4.85;;;;;;;;;;4992619;28;20056;-47
2022/03/31 10:08:50;;;;;;;7.38;4.90;;;;;;;;;;5009099;28;20581;-44
2022/03/31 10:11:22;;;;;;;7.15;4.75;;;;;;;;;;5010352;28;20236;-43
2022/03/31 10:13:57;;;;;;;10.23;5.78;;;;;;;;;;5009103;28;20556;-44
2022/03/31 10:16:31;;;;;;;7.18;4.47;;;;;;;;;;5010126;28;20129;-47
2022/03/31 10:18:57;;;;;;;10.23;6.15;;;;;;;;;;5079654;28;20512;-46
2022/03/31 10:21:29;;;;;;;6.72;3.97;;;;;;;;;;5096057;28;20044;-43
2022/03/31 10:26:42;;;;;;;6.53;3.28;;;;;;;;;;5094341;28;20078;-48
2022/03/31 10:29:13;;;;;;;11.63;7.10;;;;;;;;;;5094410;28;20035;-45
2022/03/31 10:31:40;;;;;;;10.38;6.68;;;;;;;;;;5094377;28;20075;-43
2022/03/31 10:34:09;;;;;;;7.20;4.18;;;;;;;;;;5093890;28;20040;-42
2022/03/31 10:36:40;;;;;;;9.00;5.70;;;;;;;;;;5094663;28;20043;-42
2022/03/31 10:39:08;;;;;;;9.20;4.70;;;;;;;;;;5094597;28;20125;-43
2022/03/31 10:41:38;;;;;;;11.75;7.20;;;;;;;;;;5095608;28;20124;-42
2022/03/31 10:44:13;;;;;;;12.65;7.07;;;;;;;;;;5094752;28;20128;-42
2022/03/31 10:46:41;;;;;;;9.02;6.75;;;;;;;;;;5092802;28;20039;-43
2022/03/31 10:49:13;;;;;;;9.18;5.97;;;;;;;;;;5093975;28;20096;-42
2022/03/31 10:51:40;;;;;;;9.48;6.47;;;;;;;;;;5094347;28;20043;-42
2022/03/31 10:54:06;;;;;;;6.13;4.72;;;;;;;;;;5094839;28;20040;-42
2022/03/31 10:56:33;;;;;;;9.57;5.47;;;;;;;;;;5092803;28;20531;-43
2022/03/31 10:59:01;;;;;;;9.93;6.07;;;;;;;;;;5093354;28;20094;-42
2022/03/31 11:01:28;;;;;;;8.45;6.60;;;;;;;;;;5094863;28;20043;-46
2022/03/31 11:04:00;;;;;;;6.05;3.78;;;;;;;;;;5094439;28;20031;-46
2022/03/31 11:06:26;;;;;;;7.10;4.73;;;;;;;;;;5094959;28;20043;-42
2022/03/31 11:08:52;;;;;;;9.05;5.57;;;;;;;;;;5093085;28;20292;-44
2022/03/31 11:11:19;;;;;;;9.38;4.85;;;;;;;;;;5094778;28;20039;-43
2022/03/31 11:13:46;;;;;;;8.45;5.03;;;;;;;;;;5093804;28;20055;-42
2022/03/31 11:16:14;;;;;;;7.07;4.13;;;;;;;;;;5093919;28;20249;-42
2022/03/31 11:18:40;;;;;;;5.60;3.72;;;;;;;;;;5094432;28;20062;-41
2022/03/31 11:21:06;;;;;;;7.38;4.55;;;;;;;;;;5093915;28;20036;-41
2022/03/31 11:23:34;;;;;;;6.35;4.40;;;;;;;;;;5095155;28;20077;-42
2022/03/31 11:26:00;;;;;;;6.90;4.60;;;;;;;;;;5094911;28;20104;-45
2022/03/31 11:28:30;;;;;;;7.45;4.53;;;;;;;;;;5092836;28;20040;-43
2022/03/31 11:30:56;;;;;;;5.78;4.18;;;;;;;;;;5089829;28;20042;-42
2022/03/31 11:33:23;;;;;;;5.75;4.13;;;;;;;;;;5093932;28;20112;-43
2022/03/31 11:35:53;;;;;;;8.05;4.85;;;;;;;;;;5093482;28;20112;-43
2022/03/31 11:38:21;;;;;;;7.18;4.57;;;;;;;;;;5092776;28;20125;-42
2022/03/31 11:40:48;;;;;;;6.07;4.03;;;;;;;;;;5092480;28;20036;-42
2022/03/31 11:43:16;;;;;;;8.00;5.05;;;;;;;;;;5092758;28;20082;-42
2022/03/31 11:45:45;;;;;;;4.50;2.85;;;;;;;;;;5092781;28;20039;-42
2022/03/31 11:48:15;;;;;;;4.43;3.00;;;;;;;;;;5093057;28;20069;-42
2022/03/31 11:50:59;;;;;;;5.10;3.15;;;;;;;;;;5092405;28;20036;-44
2022/03/31 11:53:32;;;;;;;7.40;5.07;;;;;;;;;;5075101;28;20032;-44
2022/03/31 11:56:11;;;;;;;5.30;3.25;;;;;;;;;;5092568;28;20244;-42
2022/03/31 11:58:46;;;;;;;6.78;3.97;;;;;;;;;;5093705;28;20513;-43
2022/03/31 12:01:14;;;;;;;7.50;4.93;;;;;;;;;;5092926;28;20047;-43
2022/03/31 12:03:40;;;;;;;8.63;5.60;;;;;;;;;;5092871;28;20586;-44
2022/03/31 12:06:07;;;;;;;6.68;3.40;;;;;;;;;;5092624;28;20046;-44
2022/03/31 12:08:34;;;;;;;7.38;5.18;;;;;;;;;;5093076;28;20040;-47
2022/03/31 12:11:01;;;;;;;7.65;5.50;;;;;;;;;;5093262;28;20070;-46
2022/03/31 12:13:28;;;;;;;6.35;3.85;;;;;;;;;;5092440;28;20036;-42
2022/03/31 12:16:04;;;;;;;7.15;4.50;;;;;;;;;;5093206;28;20042;-45
2022/03/31 12:18:31;;;;;;;8.07;5.90;;;;;;;;;;5092817;28;20446;-43
2022/03/31 12:21:00;;;;;;;8.48;4.85;;;;;;;;;;5094413;28;20067;-45
2022/03/31 12:23:28;;;;;;;6.55;3.20;;;;;;;;;;5094800;28;20047;-43
2022/03/31 12:25:55;;;;;;;5.85;3.92;;;;;;;;;;5093256;28;20128;-47
2022/03/31 12:28:25;;;;;;;6.07;4.50;;;;;;;;;;5092542;28;20054;-44
2022/03/31 12:30:53;;;;;;;9.07;5.68;;;;;;;;;;5093139;28;20036;-46
2022/03/31 12:33:24;;;;;;;5.95;3.55;;;;;;;;;;5091612;28;20043;-43
2022/03/31 12:35:51;;;;;;;9.13;5.40;;;;;;;;;;5091481;28;20180;-43
2022/03/31 12:38:19;;;;;;;9.85;7.43;;;;;;;;;;5091445;28;20048;-45
2022/03/31 12:40:45;;;;;;;11.90;5.63;;;;;;;;;;5073036;28;20058;-44
2022/03/31 12:43:11;;;;;;;7.60;4.45;;;;;;;;;;5090394;28;20476;-48
2022/03/31 12:45:38;;;;;;;5.95;4.20;;;;;;;;;;5091661;28;20036;-46
2022/03/31 12:48:08;;;;;;;8.30;6.10;;;;;;;;;;5092948;28;21018;-44
2022/03/31 12:50:34;;;;;;;10.90;6.93;;;;;;;;;;5091588;28;20066;-45
2022/03/31 12:53:03;;;;;;;13.57;9.38;;;;;;;;;;5091105;28;20565;-46
2022/03/31 12:55:36;;;;;;;8.68;6.80;;;;;;;;;;5091837;28;20461;-48
2022/03/31 12:58:04;;;;;;;8.00;6.30;;;;;;;;;;5090826;28;20039;-44
2022/03/31 13:00:32;;;;;;;9.05;4.97;;;;;;;;;;5092020;28;20070;-49
2022/03/31 13:03:00;;;;;;;12.35;7.13;;;;;;;;;;5091973;28;20454;-48
2022/03/31 13:05:27;;;;;;;6.25;3.63;;;;;;;;;;5091292;28;20039;-47
2022/03/31 13:07:55;;;;;;;8.18;6.35;;;;;;;;;;5089708;28;20043;-47
2022/03/31 13:10:22;;;;;;;9.30;6.60;;;;;;;;;;5091439;28;20066;-44
2022/03/31 13:12:49;;;;;;;10.23;7.30;;;;;;;;;;5091560;28;20040;-44
2022/03/31 13:15:16;;;;;;;13.18;8.95;;;;;;;;;;5091516;28;20461;-43
2022/03/31 13:17:45;;;;;;;8.45;5.97;;;;;;;;;;5090984;28;20054;-45
2022/03/31 13:20:11;;;;;;;7.85;5.07;;;;;;;;;;5090771;28;20146;-44
2022/03/31 13:22:38;;;;;;;10.32;7.40;;;;;;;;;;5072589;28;20322;-46
2022/03/31 13:25:06;;;;;;;12.45;9.00;;;;;;;;;;5091855;28;20046;-43
2022/03/31 13:27:33;;;;;;;12.05;8.63;;;;;;;;;;5091322;28;20074;-43
2022/03/31 13:29:59;;;;;;;11.75;7.88;;;;;;;;;;5091170;28;20272;-44
2022/03/31 13:32:25;;;;;;;10.27;6.88;;;;;;;;;;5092498;28;20089;-42
2022/03/31 13:34:51;;;;;;;10.43;8.88;;;;;;;;;;5090873;28;20574;-44
2022/03/31 13:37:19;;;;;;;10.02;7.63;;;;;;;;;;5092938;28;20138;-42
2022/03/31 13:39:45;;;;;;;9.38;5.75;;;;;;;;;;5091254;28;20043;-41
2022/03/31 13:42:13;;;;;;;11.88;8.82;;;;;;;;;;5092533;28;20047;-44
2022/03/31 13:44:40;;;;;;;13.05;9.63;;;;;;;;;;5092237;28;20039;-42
2022/03/31 13:47:06;;;;;;;12.05;8.85;;;;;;;;;;5093189;28;20043;-44
2022/03/31 13:49:33;;;;;;;13.63;10.75;;;;;;;;;;5091037;28;20043;-44
2022/03/31 13:51:59;;;;;;;14.18;10.10;;;;;;;;;;5091733;28;20048;-45
2022/03/31 13:54:27;;;;;;;10.27;6.43;;;;;;;;;;5093303;28;20039;-42
2022/03/31 13:56:54;;;;;;;14.00;11.43;;;;;;;;;;5094896;28;20118;-42
2022/03/31 14:02:07;;;;;;;10.48;7.82;;;;;;;;;;5093621;28;20568;-43
2022/03/31 14:04:33;;;;;;;7.82;5.43;;;;;;;;;;5094582;28;20048;-42
2022/03/31 14:07:03;;;;;;;11.68;8.23;;;;;;;;;;5075077;28;20744;-44
2022/03/31 14:09:29;;;;;;;6.68;4.18;;;;;;;;;;5096321;28;20066;-44
2022/03/31 14:11:56;;;;;;;10.73;8.45;;;;;;;;;;5093801;28;20043;-43
2022/03/31 14:14:23;;;;;;;12.90;9.68;;;;;;;;;;5094700;28;20050;-42
2022/03/31 14:16:51;;;;;;;10.73;6.93;;;;;;;;;;5095173;28;20051;-41
2022/03/31 14:19:18;;;;;;;10.90;8.07;;;;;;;;;;5096018;28;20055;-42
2022/03/31 14:21:47;;;;;;;14.05;9.18;;;;;;;;;;5094644;28;20040;-43
2022/03/31 14:24:13;;;;;;;10.73;7.07;;;;;;;;;;5094590;28;20429;-41
2022/03/31 14:26:40;;;;;;;11.60;6.30;;;;;;;;;;5093648;28;20074;-42
2022/03/31 14:29:07;;;;;;;9.85;6.32;;;;;;;;;;5094421;28;20783;-44
2022/03/31 14:31:34;;;;;;;10.75;6.75;;;;;;;;;;5095041;28;20134;-42
2022/03/31 14:34:00;;;;;;;7.93;5.45;;;;;;;;;;5094239;28;20046;-46